• Join FlightAware (Why Join?)
  • Login
  • US Flag 
06:36AM EDT


 

Airport Tracker/Info


-or-


 

Live Flight TrackerFlight Track Log ✈ ANE8526 ✈ 10-May-2013 ✈ LEMD / MAD - LEPP / PNA

Flight Track Log - Related Links

Times and Time Zones

All times are in EDT time to prevent confusion due to time zone crossing. See the ANE8526 flight status page for this flight to view local times or setup timezone preferences in your user account.

Time Position Orientation Groundspeed Altitude Reporting Facility
EDT Latitude Longitude Course Direction KTS MPH feet Rate Location/Type
02:46PM 41.0272 -3.1310 32° Northeast  Level Estimated
02:47PM 41.1033 -3.0681 32° Northeast  Level Estimated
02:48PM 41.1793 -3.0052 32° Northeast  Level Estimated
02:49PM 41.2554 -2.9420 32° Northeast  Level Estimated
02:50PM 41.3314 -2.8788 32° Northeast  Level Estimated
02:51PM 41.4073 -2.8153 32° Northeast  Level Estimated
02:52PM 41.4832 -2.7518 32° Northeast  Level Estimated
02:53PM 41.5591 -2.6881 32° Northeast  Level Estimated
02:54PM 41.6350 -2.6242 32° Northeast  Level Estimated
02:55PM 41.7108 -2.5602 32° Northeast  Level Estimated
02:56PM 41.7866 -2.4960 32° Northeast  Level Estimated
02:57PM 41.8623 -2.4317 32° Northeast  Level Estimated
02:58PM 41.9380 -2.3672 32° Northeast  Level Estimated
02:59PM 42.0137 -2.3026 32° Northeast  Level Estimated
03:00PM 42.0894 -2.2378 32° Northeast  Level Estimated
03:01PM 42.1650 -2.1729 32° Northeast  Level Estimated
03:02PM 42.2405 -2.1078 33° Northeast  Level Estimated
03:03PM 42.3161 -2.0425 33° Northeast  Level Estimated
03:04PM 42.3915 -1.9771 33° Northeast  Level Estimated
03:05PM 42.4670 -1.9116 33° Northeast  Level Estimated
03:06PM 42.5424 -1.8458 33° Northeast  Level Estimated
03:07PM 42.6178 -1.7800 33° Northeast  Level Estimated
03:08PM 42.6931 -1.7139 33° Northeast  Level Estimated
03:09PM 42.7684 -1.6477 33° Northeast  Level Estimated
03:10PM 42.7700 -1.6463 33° Northeast  Level Estimated
03:11PM 42.7700 -1.6463 216° Southwest  Level Estimated
03:12PM 42.7700 -1.6463 216° Southwest  Level Estimated
03:13PM 42.7700 -1.6463 216° Southwest  Level Estimated
03:14PM 42.7700 -1.6463 216° Southwest  Level Estimated
03:15PM 42.7700 -1.6463 216° Southwest  Level Estimated
03:16PM 42.7700 -1.6463 216° Southwest  Level Estimated
03:17PM 42.7700 -1.6463 216° Southwest  Level Estimated
03:18PM 42.7700 -1.6463 216° Southwest  Level Estimated
03:19PM 42.7700 -1.6463 216° Southwest  Level Estimated
03:20PM 42.7700 -1.6463 216° Southwest  Level Estimated
03:21PM 42.7700 -1.6463 216° Southwest  Level Estimated
03:22PM 42.7700 -1.6463 216° Southwest  Level Estimated
03:23PM 42.7700 -1.6463 216° Southwest  Level Estimated
03:24PM 42.7700 -1.6463 216° Southwest  Level Estimated